Time;durP1;ratioP1;P1;durP2;ratioP2;P2;SDS_P1;SDS_P2;PMS_P1;PMS_P2;Temp;Humidity;BMP_temperature;BMP_pressure;BME280_temperature;BME280_humidity;BME280_pressure;Samples;Min_cycle;Max_cycle;Signal;HPM_P1;HPM_P2
2022/06/05 00:00:21;;;;;;;11.63;10.73;;;19.30;99.90;;;;;;5078421;28;20645;-44
2022/06/05 00:03:05;;;;;;;11.37;10.40;;;19.20;99.90;;;;;;5077076;28;20251;-44
2022/06/05 00:05:43;;;;;;;11.10;10.30;;;19.20;99.90;;;;;;5077465;28;20426;-44
2022/06/05 00:08:13;;;;;;;12.00;11.20;;;19.20;99.90;;;;;;5076737;28;20513;-44
2022/06/05 00:10:46;;;;;;;11.27;10.47;;;19.20;99.90;;;;;;5076242;28;20417;-44
2022/06/05 00:13:24;;;;;;;11.63;10.77;;;19.20;99.90;;;;;;5075316;28;20404;-44
2022/06/05 00:15:50;;;;;;;12.10;11.20;;;19.20;99.90;;;;;;5075606;28;20424;-44
2022/06/05 00:18:15;;;;;;;12.83;11.83;;;19.20;99.90;;;;;;5076048;28;20421;-44
2022/06/05 00:20:42;;;;;;;12.60;11.60;;;19.30;99.90;;;;;;5075291;28;20485;-43
2022/06/05 00:23:08;;;;;;;12.57;11.67;;;19.20;99.90;;;;;;5077323;28;20212;-44
2022/06/05 00:25:53;;;;;;;12.07;11.03;;;19.20;99.90;;;;;;5077355;28;20434;-43
2022/06/05 00:28:22;;;;;;;12.73;11.63;;;19.20;99.90;;;;;;5077979;28;20484;-44
2022/06/05 00:31:16;;;;;;;11.13;10.23;;;19.10;99.90;;;;;;5077633;28;20424;-44
2022/06/05 00:33:42;;;;;;;12.57;11.47;;;19.10;99.90;;;;;;5045788;28;20804;-43
2022/06/05 00:36:56;;;;;;;12.80;11.80;;;19.10;99.90;;;;;;5076915;28;20877;-44
2022/06/05 00:39:40;;;;;;;11.63;10.83;;;19.00;99.90;;;;;;5030130;28;20427;-44
2022/06/05 00:42:09;;;;;;;11.80;10.80;;;19.10;99.90;;;;;;5076809;28;20760;-44
2022/06/05 00:44:41;;;;;;;12.00;11.10;;;19.10;99.90;;;;;;5076352;28;20562;-44
2022/06/05 00:47:13;;;;;;;12.70;11.60;;;19.00;99.90;;;;;;5075910;28;20466;-43
2022/06/05 00:49:46;;;;;;;12.23;11.20;;;19.00;99.90;;;;;;5076336;28;20424;-44
2022/06/05 00:52:13;;;;;;;13.00;11.90;;;19.00;99.90;;;;;;5075874;28;20480;-44
2022/06/05 00:54:39;;;;;;;12.60;11.67;;;19.00;99.90;;;;;;5077303;28;20527;-45
2022/06/05 00:57:10;;;;;;;11.53;10.53;;;18.90;99.90;;;;;;5077527;28;20416;-44
2022/06/05 00:59:37;;;;;;;12.20;11.30;;;18.90;99.90;;;;;;5077790;28;20694;-43
2022/06/05 01:02:03;;;;;;;13.27;12.27;;;18.90;99.90;;;;;;5059515;28;20769;-44
2022/06/05 01:04:31;;;;;;;12.27;11.27;;;18.90;99.90;;;;;;5059465;28;20427;-45
2022/06/05 01:06:57;;;;;;;12.30;11.40;;;18.90;99.90;;;;;;5076693;28;20416;-44
2022/06/05 01:09:22;;;;;;;12.20;11.30;;;18.90;99.90;;;;;;5076206;28;20482;-44
2022/06/05 01:12:08;;;;;;;14.50;13.40;;;18.90;99.90;;;;;;5075259;28;20184;-43
2022/06/05 01:14:34;;;;;;;13.87;12.47;;;18.80;99.90;;;;;;5074921;28;20254;-43
2022/06/05 01:17:19;;;;;;;12.97;11.67;;;18.80;99.90;;;;;;5075621;28;20429;-43
2022/06/05 01:19:55;;;;;;;12.27;11.30;;;18.80;99.90;;;;;;5076671;28;20421;-44
2022/06/05 01:22:30;;;;;;;12.90;11.90;;;18.80;99.90;;;;;;5086643;28;20493;-45
2022/06/05 01:25:16;;;;;;;12.17;11.27;;;18.70;99.90;;;;;;5076592;28;20425;-44
2022/06/05 01:27:46;;;;;;;13.40;12.30;;;18.70;99.90;;;;;;5076626;28;20487;-45
2022/06/05 01:30:23;;;;;;;12.57;11.47;;;18.70;99.90;;;;;;5077405;28;20516;-45
2022/06/05 01:33:07;;;;;;;12.00;11.10;;;18.70;99.90;;;;;;5076406;28;20545;-44
2022/06/05 01:35:42;;;;;;;13.03;12.00;;;18.70;99.90;;;;;;5076688;28;20428;-43
2022/06/05 01:38:12;;;;;;;13.33;12.33;;;18.70;99.90;;;;;;5077197;28;20709;-43
2022/06/05 01:40:45;;;;;;;11.07;10.17;;;18.70;99.90;;;;;;5076045;28;20424;-44
2022/06/05 01:43:17;;;;;;;12.03;11.03;;;18.70;99.90;;;;;;5073670;28;20571;-44
2022/06/05 01:45:56;;;;;;;12.20;11.23;;;18.70;99.90;;;;;;5073856;28;20492;-43
2022/06/05 01:48:28;;;;;;;12.60;11.70;;;18.70;99.90;;;;;;5075239;28;20521;-43
2022/06/05 01:50:57;;;;;;;12.40;11.30;;;18.60;99.90;;;;;;5082170;28;20763;-43
2022/06/05 01:53:30;;;;;;;11.53;10.73;;;18.60;99.90;;;;;;5093326;28;20497;-42
2022/06/05 01:56:09;;;;;;;12.30;11.40;;;18.60;99.90;;;;;;5096122;28;20488;-44
2022/06/05 01:58:39;;;;;;;12.57;11.50;;;18.60;99.90;;;;;;5096065;28;20435;-44
2022/06/05 02:01:10;;;;;;;12.37;11.47;;;18.60;99.90;;;;;;5098658;28;20460;-44
2022/06/05 02:03:51;;;;;;;13.27;12.17;;;18.60;99.90;;;;;;5100553;28;20867;-44
2022/06/05 02:06:23;;;;;;;13.77;12.40;;;18.60;99.90;;;;;;5099377;28;20419;-42
2022/06/05 02:09:02;;;;;;;13.03;11.97;;;18.60;99.90;;;;;;5099625;28;20487;-44
2022/06/05 02:11:31;;;;;;;11.60;10.70;;;18.60;99.90;;;;;;5098836;28;20446;-44
2022/06/05 02:14:01;;;;;;;12.30;11.40;;;18.60;99.90;;;;;;5099619;28;20420;-44
2022/06/05 02:16:29;;;;;;;13.13;12.13;;;18.60;99.90;;;;;;5099944;28;20438;-44
2022/06/05 02:18:56;;;;;;;13.40;12.30;;;18.60;99.90;;;;;;5099377;28;20432;-44
2022/06/05 02:21:22;;;;;;;12.80;11.80;;;18.60;99.90;;;;;;5100749;28;20437;-44
2022/06/05 02:23:47;;;;;;;12.87;11.87;;;18.60;99.90;;;;;;5100158;28;20467;-44
2022/06/05 02:26:13;;;;;;;12.60;11.70;;;18.60;99.90;;;;;;5100695;28;20270;-44
2022/06/05 02:28:39;;;;;;;13.00;11.80;;;18.60;99.90;;;;;;5100416;28;20229;-44
2022/06/05 02:31:14;;;;;;;13.20;12.20;;;18.60;99.90;;;;;;5100520;28;20460;-44
2022/06/05 02:33:39;;;;;;;13.07;12.07;;;18.50;99.90;;;;;;5100150;28;20427;-44
2022/06/05 02:36:31;;;;;;;13.07;11.97;;;18.50;99.90;;;;;;5100041;28;20423;-44
2022/06/05 02:39:03;;;;;;;13.20;12.20;;;18.50;99.90;;;;;;5088183;28;20205;-44
2022/06/05 02:41:35;;;;;;;12.83;11.83;;;18.40;99.90;;;;;;5099719;28;20825;-44
2022/06/05 02:44:29;;;;;;;12.30;11.40;;;18.40;99.90;;;;;;5099625;28;20895;-45
2022/06/05 02:47:13;;;;;;;12.53;11.63;;;18.40;99.90;;;;;;5099967;28;20416;-44
2022/06/05 02:49:50;;;;;;;14.03;12.93;;;18.40;99.90;;;;;;5099157;28;20424;-44
2022/06/05 02:52:16;;;;;;;14.10;13.00;;;18.30;99.90;;;;;;5099102;28;20438;-44
2022/06/05 02:54:47;;;;;;;14.07;13.00;;;18.30;99.90;;;;;;5098840;28;20447;-44
2022/06/05 02:57:13;;;;;;;13.90;12.90;;;18.30;99.90;;;;;;5099199;28;20519;-44
2022/06/05 02:59:39;;;;;;;14.40;13.20;;;18.30;99.90;;;;;;5099751;28;20462;-44
2022/06/05 03:04:50;;;;;;;14.20;13.07;;;18.30;99.90;;;;;;5099550;28;20473;-44
2022/06/05 03:07:16;;;;;;;14.33;13.13;;;18.30;99.90;;;;;;5100303;28;20434;-44
2022/06/05 03:09:41;;;;;;;14.00;12.90;;;18.30;99.90;;;;;;5098755;28;20249;-44
2022/06/05 03:12:07;;;;;;;13.40;12.30;;;18.40;99.90;;;;;;5100060;28;20419;-45
2022/06/05 03:14:33;;;;;;;14.80;13.60;;;18.40;99.90;;;;;;5099336;28;20798;-45
2022/06/05 03:16:59;;;;;;;14.17;12.90;;;18.40;99.90;;;;;;5099884;28;20427;-45
2022/06/05 03:19:25;;;;;;;14.20;13.07;;;18.40;99.90;;;;;;5099425;28;20179;-45
2022/06/05 03:21:50;;;;;;;14.37;13.07;;;18.40;99.90;;;;;;5099533;28;20261;-44
2022/06/05 03:24:16;;;;;;;14.90;13.50;;;18.40;99.90;;;;;;5099433;28;20834;-45
2022/06/05 03:26:42;;;;;;;13.93;12.93;;;18.40;99.90;;;;;;5098031;28;20197;-45
2022/06/05 03:29:08;;;;;;;14.50;13.40;;;18.40;99.90;;;;;;5099115;28;20201;-44
2022/06/05 03:31:37;;;;;;;14.43;13.33;;;18.40;99.90;;;;;;5098736;28;20175;-45
2022/06/05 03:34:03;;;;;;;13.60;12.60;;;18.50;99.90;;;;;;5099737;28;20465;-44
2022/06/05 03:36:28;;;;;;;13.50;12.40;;;18.50;99.90;;;;;;5098896;28;20430;-44
2022/06/05 03:38:54;;;;;;;12.80;11.70;;;18.50;99.90;;;;;;5098166;28;20440;-44
2022/06/05 03:41:20;;;;;;;12.80;11.80;;;18.50;99.90;;;;;;5097761;28;20189;-44
2022/06/05 03:43:46;;;;;;;12.80;11.83;;;18.50;99.90;;;;;;5097004;28;20656;-45
2022/06/05 03:46:13;;;;;;;12.73;11.83;;;18.50;99.90;;;;;;5096139;28;20498;-45
2022/06/05 03:48:39;;;;;;;12.33;11.37;;;18.50;99.90;;;;;;5094695;28;20399;-44
2022/06/05 03:51:11;;;;;;;13.37;12.27;;;18.50;99.90;;;;;;5093876;28;20501;-44
2022/06/05 03:53:38;;;;;;;13.13;12.03;;;18.60;99.90;;;;;;5094547;28;20408;-45
2022/06/05 03:56:11;;;;;;;13.37;12.37;;;18.60;99.90;;;;;;5094510;28;20452;-45
2022/06/05 03:58:37;;;;;;;13.10;12.00;;;18.60;99.90;;;;;;5095409;28;20459;-45
2022/06/05 04:01:06;;;;;;;11.27;10.47;;;18.60;99.90;;;;;;5095843;28;20435;-45
2022/06/05 04:03:32;;;;;;;13.37;12.13;;;18.60;99.90;;;;;;5098041;28;20524;-45
2022/06/05 04:05:58;;;;;;;12.37;11.43;;;18.60;99.90;;;;;;5099087;28;20417;-45
2022/06/05 04:08:24;;;;;;;12.40;11.50;;;18.60;99.90;;;;;;5099016;28;20779;-51
2022/06/05 04:10:49;;;;;;;12.20;11.20;;;18.70;99.90;;;;;;5098586;28;20177;-45
2022/06/05 04:13:15;;;;;;;13.23;12.23;;;18.60;99.90;;;;;;5098611;28;20572;-44
2022/06/05 04:15:41;;;;;;;13.10;12.03;;;18.70;99.90;;;;;;5098255;28;20173;-44
2022/06/05 04:18:07;;;;;;;12.03;11.00;;;18.70;99.90;;;;;;5097697;28;20174;-44
2022/06/05 04:20:34;;;;;;;13.70;12.70;;;18.70;99.90;;;;;;5097637;28;20410;-44
2022/06/05 04:23:00;;;;;;;12.90;12.00;;;18.70;99.90;;;;;;5097141;28;20538;-44
2022/06/05 04:25:26;;;;;;;13.47;12.37;;;18.60;99.90;;;;;;5097268;28;20498;-44
2022/06/05 04:27:52;;;;;;;13.03;12.03;;;18.60;99.90;;;;;;5098100;28;20577;-44
2022/06/05 04:30:18;;;;;;;12.07;11.17;;;18.60;99.90;;;;;;5097789;28;20557;-44
2022/06/05 04:32:44;;;;;;;11.97;11.07;;;18.50;99.90;;;;;;5098267;28;20519;-44
2022/06/05 04:35:10;;;;;;;13.00;12.00;;;18.50;99.90;;;;;;5098395;28;20444;-44
2022/06/05 04:37:36;;;;;;;12.53;11.63;;;18.50;99.90;;;;;;5098313;28;20427;-45
2022/06/05 04:40:03;;;;;;;12.37;11.27;;;18.50;99.90;;;;;;5098179;28;20416;-45
2022/06/05 04:42:30;;;;;;;12.40;11.50;;;18.50;99.90;;;;;;5098222;28;20468;-45
2022/06/05 04:44:56;;;;;;;13.70;12.63;;;18.50;99.90;;;;;;5097387;28;20772;-45
2022/06/05 04:47:22;;;;;;;13.83;12.73;;;18.50;99.90;;;;;;5097135;28;20518;-45
2022/06/05 04:49:47;;;;;;;14.57;13.47;;;18.50;99.90;;;;;;5097382;28;20507;-44
2022/06/05 04:52:13;;;;;;;16.07;14.67;;;18.50;99.90;;;;;;5097403;28;20556;-44
2022/06/05 04:54:38;;;;;;;14.67;13.50;;;18.40;99.90;;;;;;5096877;28;20181;-44
2022/06/05 04:57:04;;;;;;;17.63;16.17;;;18.40;99.90;;;;;;5097893;28;20248;-44
2022/06/05 04:59:30;;;;;;;17.10;15.57;;;18.40;99.90;;;;;;5097597;28;20255;-44
2022/06/05 05:01:56;;;;;;;14.80;13.70;;;18.50;99.90;;;;;;5097468;28;20419;-44
2022/06/05 05:04:21;;;;;;;16.13;14.53;;;18.50;99.90;;;;;;5097115;28;20443;-44
2022/06/05 05:06:47;;;;;;;16.43;15.10;;;18.40;99.90;;;;;;5097702;28;20238;-44
2022/06/05 05:09:13;;;;;;;17.60;15.90;;;18.40;99.90;;;;;;5096777;28;20321;-44
2022/06/05 05:11:39;;;;;;;18.30;16.80;;;18.30;99.90;;;;;;5096746;28;20181;-44
2022/06/05 05:14:04;;;;;;;16.17;14.80;;;18.30;99.90;;;;;;5096775;28;20705;-44
2022/06/05 05:16:31;;;;;;;15.87;14.67;;;18.20;99.90;;;;;;5096758;28;20175;-44
2022/06/05 05:18:57;;;;;;;17.03;15.63;;;18.10;99.90;;;;;;5095643;28;20183;-44
2022/06/05 05:21:25;;;;;;;18.70;17.20;;;18.10;99.90;;;;;;5096027;28;20431;-44
2022/06/05 05:23:50;;;;;;;18.13;16.63;;;18.10;99.90;;;;;;5096655;28;20466;-44
2022/06/05 05:26:22;;;;;;;18.60;17.20;;;18.00;99.90;;;;;;5095137;28;20506;-44
2022/06/05 05:28:48;;;;;;;17.73;16.40;;;18.00;99.90;;;;;;5097423;28;20473;-44
2022/06/05 05:31:22;;;;;;;17.70;16.30;;;18.00;99.90;;;;;;5096780;28;20429;-44
2022/06/05 05:33:49;;;;;;;18.47;16.87;;;18.00;99.90;;;;;;5097580;28;20745;-44
2022/06/05 05:36:19;;;;;;;19.93;18.33;;;17.90;99.90;;;;;;5102791;28;20433;-44
2022/06/05 05:44:14;;;;;;;20.30;18.53;;;17.80;99.90;;;;;;5103256;28;20414;-44
2022/06/05 05:46:41;;;;;;;19.13;17.43;;;17.70;99.90;;;;;;5085913;28;20423;-44
2022/06/05 05:49:07;;;;;;;19.00;17.30;;;17.70;99.90;;;;;;5104288;28;20250;-44
2022/06/05 05:51:33;;;;;;;22.37;20.47;;;17.60;99.90;;;;;;5103795;28;20433;-44
2022/06/05 05:53:59;;;;;;;19.33;17.53;;;17.70;99.90;;;;;;5103164;28;20413;-44
2022/06/05 05:56:24;;;;;;;19.00;17.40;;;17.70;99.90;;;;;;5103833;28;20430;-42
2022/06/05 05:58:50;;;;;;;18.90;17.07;;;17.70;99.90;;;;;;5103838;28;20254;-42
2022/06/05 06:01:16;;;;;;;15.13;13.83;;;17.60;99.90;;;;;;5103553;28;20536;-42
2022/06/05 06:03:41;;;;;;;17.40;16.00;;;17.50;99.90;;;;;;5103842;28;20622;-39
2022/06/05 06:06:07;;;;;;;17.13;15.63;;;17.40;99.90;;;;;;5103883;28;20189;-42
2022/06/05 06:08:34;;;;;;;16.90;15.43;;;17.40;99.90;;;;;;5104112;28;20178;-44
2022/06/05 06:11:00;;;;;;;15.60;14.30;;;17.40;99.90;;;;;;5103928;28;20426;-39
2022/06/05 06:13:25;;;;;;;13.77;12.67;;;17.40;99.90;;;;;;5103401;28;20689;-41
2022/06/05 06:15:51;;;;;;;10.97;10.07;;;17.30;99.90;;;;;;5094239;28;20227;-40
2022/06/05 06:18:17;;;;;;;13.07;10.47;;;17.40;99.90;;;;;;5083188;28;20197;-42
2022/06/05 06:20:44;;;;;;;12.30;10.33;;;17.50;99.90;;;;;;5090830;28;20197;-41
2022/06/05 06:23:10;;;;;;;9.67;8.87;;;17.50;99.90;;;;;;5102522;28;20764;-39
2022/06/05 06:25:37;;;;;;;9.67;8.80;;;17.50;99.90;;;;;;5103470;28;20394;-42
2022/06/05 06:28:04;;;;;;;8.30;7.60;;;17.50;99.90;;;;;;5104038;28;20616;-41
2022/06/05 06:30:31;;;;;;;8.70;7.90;;;17.60;99.90;;;;;;5103902;28;20426;-40
2022/06/05 06:32:57;;;;;;;10.07;9.17;;;17.60;99.90;;;;;;5103666;28;20430;-42
2022/06/05 06:35:23;;;;;;;10.83;9.93;;;17.60;99.90;;;;;;5103718;28;20418;-42
2022/06/05 06:37:49;;;;;;;10.53;9.73;;;17.60;99.90;;;;;;5103920;28;21013;-43
2022/06/05 06:40:15;;;;;;;10.10;9.20;;;17.60;99.90;;;;;;5085543;28;20181;-41
2022/06/05 06:42:40;;;;;;;9.63;8.73;;;17.60;99.90;;;;;;5103663;28;20273;-43
2022/06/05 06:45:07;;;;;;;10.60;9.70;;;17.50;99.90;;;;;;5104191;28;20421;-42
2022/06/05 06:47:33;;;;;;;9.87;8.97;;;17.60;99.90;;;;;;5099505;28;20195;-42
2022/06/05 06:49:59;;;;;;;11.10;10.10;;;17.60;99.90;;;;;;5100406;28;20777;-43
2022/06/05 06:52:25;;;;;;;9.73;8.93;;;17.60;99.90;;;;;;5099709;28;20436;-41
2022/06/05 06:54:50;;;;;;;11.03;10.03;;;17.60;99.90;;;;;;5099552;28;20214;-41
2022/06/05 06:57:16;;;;;;;10.57;9.47;;;17.70;99.90;;;;;;5099216;28;20195;-41
2022/06/05 06:59:42;;;;;;;9.03;8.23;;;17.70;99.90;;;;;;5099204;28;20217;-40
2022/06/05 07:02:07;;;;;;;8.30;7.60;;;17.70;99.90;;;;;;5098238;28;20432;-42
2022/06/05 07:04:34;;;;;;;6.87;6.20;;;17.70;99.90;;;;;;5098638;28;20466;-47
2022/06/05 07:07:00;;;;;;;7.80;7.00;;;17.70;99.90;;;;;;5099606;28;20177;-47
2022/06/05 07:09:25;;;;;;;7.47;6.80;;;17.70;99.90;;;;;;5100260;28;20931;-47
2022/06/05 07:11:51;;;;;;;6.93;6.27;;;17.70;99.90;;;;;;5098951;28;20458;-47
2022/06/05 07:14:17;;;;;;;7.67;6.90;;;17.80;99.90;;;;;;5098890;28;20273;-47
2022/06/05 07:16:42;;;;;;;6.27;5.77;;;17.80;99.90;;;;;;5098807;28;20178;-47
2022/06/05 07:19:08;;;;;;;5.90;5.40;;;17.90;99.90;;;;;;5098839;28;20242;-48
2022/06/05 07:21:34;;;;;;;7.00;6.30;;;17.90;99.90;;;;;;5099435;28;20286;-48
2022/06/05 07:24:01;;;;;;;7.50;6.90;;;17.90;99.90;;;;;;5099606;28;20475;-48
2022/06/05 07:26:29;;;;;;;7.80;6.43;;;18.00;99.90;;;;;;5099652;28;20184;-48
2022/06/05 07:28:56;;;;;;;7.60;6.90;;;18.00;99.90;;;;;;5099349;28;20478;-47
2022/06/05 07:31:22;;;;;;;7.10;6.60;;;18.00;99.90;;;;;;5098807;28;20455;-48
2022/06/05 07:33:48;;;;;;;8.10;6.20;;;18.10;99.90;;;;;;5100064;28;20432;-48
2022/06/05 07:36:16;;;;;;;5.20;4.80;;;18.20;99.90;;;;;;5099174;28;20709;-48
2022/06/05 07:38:43;;;;;;;5.50;5.00;;;18.30;99.90;;;;;;5098952;28;20200;-48
2022/06/05 07:41:26;;;;;;;6.50;6.00;;;18.50;99.90;;;;;;5098429;28;20448;-48
2022/06/05 07:43:52;;;;;;;5.93;5.40;;;18.60;99.90;;;;;;5099174;28;20464;-48
2022/06/05 07:46:18;;;;;;;7.07;6.47;;;18.80;99.90;;;;;;5098882;28;20414;-48
2022/06/05 07:48:43;;;;;;;7.37;6.77;;;19.00;99.90;;;;;;5098405;28;20448;-48
2022/06/05 07:56:41;;;;;;;6.40;5.73;;;19.60;99.90;;;;;;5098755;28;20513;-47
2022/06/05 07:59:07;;;;;;;6.40;5.90;;;19.80;99.90;;;;;;5096358;28;20520;-46
2022/06/05 08:01:34;;;;;;;6.87;6.10;;;20.00;99.90;;;;;;5081066;28;20177;-38
2022/06/05 08:04:00;;;;;;;5.73;5.07;;;20.00;99.90;;;;;;5098322;28;20476;-39
2022/06/05 08:06:26;;;;;;;5.33;4.87;;;20.20;99.90;;;;;;5097284;28;20506;-42
2022/06/05 08:08:51;;;;;;;5.90;5.33;;;20.30;99.90;;;;;;5094759;28;20179;-42
2022/06/05 08:11:17;;;;;;;4.80;4.30;;;20.50;99.90;;;;;;5094351;28;20171;-40
2022/06/05 08:13:43;;;;;;;4.80;4.40;;;20.60;99.90;;;;;;5094970;28;20191;-41
2022/06/05 08:16:11;;;;;;;5.20;4.70;;;20.90;99.90;;;;;;5096010;28;20447;-41
2022/06/05 08:18:37;;;;;;;4.50;4.10;;;21.10;99.90;;;;;;5094727;28;20745;-44
2022/06/05 08:21:03;;;;;;;5.13;4.70;;;21.50;99.80;;;;;;5093405;28;20471;-42
2022/06/05 08:23:29;;;;;;;5.13;4.60;;;21.80;99.40;;;;;;5096447;28;20503;-45
2022/06/05 08:25:55;;;;;;;5.07;4.57;;;22.20;98.70;;;;;;5095588;28;20172;-40
2022/06/05 08:28:23;;;;;;;5.10;4.60;;;22.50;97.80;;;;;;5076633;28;20891;-41
2022/06/05 08:30:49;;;;;;;4.53;4.13;;;22.60;97.40;;;;;;5096080;28;20489;-43
2022/06/05 08:33:14;;;;;;;4.50;4.10;;;22.70;96.90;;;;;;5095221;28;20696;-40
2022/06/05 08:35:40;;;;;;;5.87;4.13;;;22.70;97.30;;;;;;5094807;28;20262;-40
2022/06/05 08:44:06;;;;;;;3.50;3.20;;;22.70;97.60;;;;;;5096813;28;20463;-40
2022/06/05 08:46:38;;;;;;;3.73;3.30;;;22.60;97.00;;;;;;5097199;28;20422;-42
2022/06/05 08:49:12;;;;;;;4.17;3.40;;;22.60;97.80;;;;;;5097228;28;20488;-42
2022/06/05 08:52:05;;;;;;;5.27;2.90;;;22.80;97.30;;;;;;5097764;28;20417;-41
2022/06/05 08:54:37;;;;;;;3.30;3.00;;;22.90;97.10;;;;;;5098070;28;20420;-43
2022/06/05 08:57:15;;;;;;;4.83;3.90;;;23.00;96.90;;;;;;5096877;28;20421;-40
2022/06/05 09:00:02;;;;;;;4.90;3.63;;;23.00;97.60;;;;;;5096431;28;20548;-45
2022/06/05 09:02:38;;;;;;;4.27;3.97;;;23.20;97.10;;;;;;5097926;28;20599;-42
2022/06/05 09:05:08;;;;;;;5.60;4.10;;;23.40;96.70;;;;;;5097691;28;20421;-42
2022/06/05 09:07:52;;;;;;;5.03;4.57;;;23.60;96.40;;;;;;5097232;28;20713;-45
2022/06/05 09:10:33;;;;;;;4.60;3.80;;;23.60;96.80;;;;;;5095131;28;20508;-40
2022/06/05 09:13:03;;;;;;;5.00;4.40;;;23.70;96.60;;;;;;5097821;28;20714;-40
2022/06/05 09:15:34;;;;;;;4.30;3.90;;;23.50;96.30;;;;;;5096012;28;20822;-42
2022/06/05 09:18:01;;;;;;;5.53;4.60;;;23.10;96.30;;;;;;5094781;28;20438;-40
2022/06/05 09:20:40;;;;;;;6.07;4.30;;;22.70;97.40;;;;;;5096664;28;20434;-40
2022/06/05 09:23:22;;;;;;;5.77;4.83;;;22.40;98.60;;;;;;5094941;28;20503;-42
2022/06/05 09:25:59;;;;;;;3.50;3.20;;;22.30;99.10;;;;;;5093731;28;20414;-47
2022/06/05 09:28:35;;;;;;;3.33;3.03;;;22.50;99.30;;;;;;5096445;28;20863;-44
2022/06/05 09:31:22;;;;;;;4.70;4.20;;;23.00;99.20;;;;;;5095453;28;20591;-42
2022/06/05 09:33:49;;;;;;;4.70;4.20;;;23.50;97.70;;;;;;5096480;28;20461;-43
2022/06/05 09:36:17;;;;;;;5.00;4.23;;;23.70;97.10;;;;;;5097235;28;20424;-42
2022/06/05 09:38:57;;;;;;;4.33;3.40;;;23.70;97.20;;;;;;5095974;28;20420;-42
2022/06/05 09:41:49;;;;;;;4.40;3.13;;;23.70;97.10;;;;;;5079183;28;20479;-52
2022/06/05 09:44:27;;;;;;;3.23;2.53;;;24.00;96.60;;;;;;5094167;28;20465;-47
2022/06/05 09:47:10;;;;;;;3.53;2.83;;;24.40;95.90;;;;;;5076422;28;20424;-46
2022/06/05 09:49:46;;;;;;;2.70;2.50;;;24.90;95.00;;;;;;5094501;28;20752;-48
2022/06/05 09:52:24;;;;;;;6.43;5.17;;;25.20;93.40;;;;;;5078224;28;20440;-47
2022/06/05 09:55:08;;;;;;;4.67;3.23;;;25.30;94.00;;;;;;5095943;28;20440;-47
2022/06/05 10:00:46;;;;;;;8.10;5.63;;;25.80;93.60;;;;;;5095743;28;20468;-48
2022/06/05 10:03:14;;;;;;;6.77;5.40;;;26.30;93.50;;;;;;5095814;28;20495;-46
2022/06/05 10:05:46;;;;;;;6.00;4.17;;;26.50;92.30;;;;;;5095316;28;20410;-46
2022/06/05 10:08:18;;;;;;;6.03;4.10;;;25.90;91.90;;;;;;5095153;28;20413;-46
2022/06/05 10:10:45;;;;;;;5.40;3.97;;;25.30;93.20;;;;;;5096417;28;20413;-45
2022/06/05 10:13:30;;;;;;;5.07;4.03;;;24.90;94.30;;;;;;5096546;28;20422;-44
2022/06/05 10:16:02;;;;;;;7.17;4.10;;;24.70;94.90;;;;;;5096688;28;20428;-44
2022/06/05 10:18:38;;;;;;;4.00;3.60;;;24.50;95.90;;;;;;5096007;28;20421;-45
2022/06/05 10:21:09;;;;;;;5.67;3.90;;;24.30;96.10;;;;;;5094938;28;20852;-45
2022/06/05 10:23:49;;;;;;;5.43;4.00;;;23.90;95.80;;;;;;5080018;28;20566;-44
2022/06/05 10:26:26;;;;;;;4.90;4.20;;;23.50;97.10;;;;;;5099343;28;20710;-45
2022/06/05 10:29:06;;;;;;;5.37;4.87;;;23.10;97.80;;;;;;5098413;28;20518;-46
2022/06/05 10:31:33;;;;;;;4.93;4.33;;;22.70;99.00;;;;;;5098716;28;20435;-44
2022/06/05 10:34:28;;;;;;;6.70;4.70;;;22.50;99.80;;;;;;5099266;28;20430;-45
2022/06/05 10:36:58;;;;;;;5.13;4.53;;;22.20;99.90;;;;;;5098719;28;20703;-43
2022/06/05 10:39:49;;;;;;;6.00;4.23;;;21.90;99.90;;;;;;5098236;28;20509;-45
2022/06/05 10:42:28;;;;;;;4.43;4.03;;;21.70;99.90;;;;;;5099511;28;20426;-44
2022/06/05 10:45:19;;;;;;;5.57;4.50;;;21.50;99.90;;;;;;5098060;28;20448;-44
2022/06/05 10:47:53;;;;;;;5.23;4.83;;;21.40;99.90;;;;;;5098056;28;20909;-49
2022/06/05 10:50:58;;;;;;;6.27;4.97;;;21.30;99.90;;;;;;5098722;28;20410;-46
2022/06/05 10:53:26;;;;;;;5.97;5.40;;;21.10;99.90;;;;;;5017938;28;20476;-44
2022/06/05 10:56:05;;;;;;;6.07;5.47;;;21.10;99.90;;;;;;5017813;28;20412;-44
2022/06/05 10:58:36;;;;;;;5.87;5.00;;;21.10;99.90;;;;;;5063352;28;20703;-44
2022/06/05 11:01:20;;;;;;;9.27;5.30;;;21.10;99.90;;;;;;5098827;28;20419;-44
2022/06/05 11:04:15;;;;;;;5.20;4.80;;;21.10;99.90;;;;;;5099895;28;20875;-47
2022/06/05 11:07:06;;;;;;;4.90;4.50;;;21.20;99.90;;;;;;5097026;28;20790;-46
2022/06/05 11:10:14;;;;;;;5.00;4.50;;;21.20;99.90;;;;;;5088495;28;20420;-43
2022/06/05 11:16:12;;;;;;;6.10;4.70;;;21.30;99.90;;;;;;5099055;28;20504;-47
2022/06/05 11:19:03;;;;;;;4.70;4.30;;;21.20;99.90;;;;;;5098251;28;20423;-46
2022/06/05 11:21:30;;;;;;;4.53;4.13;;;21.10;99.90;;;;;;5099667;28;20444;-45
2022/06/05 11:23:58;;;;;;;4.43;4.03;;;21.20;99.90;;;;;;5100098;28;20456;-48
2022/06/05 11:26:57;;;;;;;4.50;4.10;;;21.50;99.90;;;;;;5079826;28;20489;-46
2022/06/05 11:29:41;;;;;;;5.00;3.70;;;21.90;99.90;;;;;;5078882;28;20435;-47
2022/06/05 11:32:20;;;;;;;4.83;3.90;;;22.50;99.50;;;;;;5076688;28;20419;-44
2022/06/05 11:34:49;;;;;;;4.73;4.33;;;23.10;97.20;;;;;;5080696;28;20436;-46
2022/06/05 11:37:39;;;;;;;4.70;4.17;;;23.40;96.90;;;;;;5099128;28;20713;-46
2022/06/05 11:40:38;;;;;;;5.03;3.83;;;23.50;96.50;;;;;;5099345;28;20405;-44
2022/06/05 11:43:34;;;;;;;4.93;3.20;;;23.80;96.40;;;;;;5099908;28;20451;-46
2022/06/05 11:46:09;;;;;;;5.73;3.97;;;24.60;95.50;;;;;;5090761;28;20753;-45
2022/06/05 11:48:52;;;;;;;5.33;3.57;;;25.40;94.20;;;;;;5100302;28;20703;-48
2022/06/05 11:52:13;;;;;;;3.73;3.17;;;25.90;92.60;;;;;;5097478;28;20437;-46
2022/06/05 11:55:10;;;;;;;3.70;3.40;;;26.00;91.70;;;;;;5014180;28;20532;-46
2022/06/05 11:57:37;;;;;;;4.50;3.47;;;25.60;91.70;;;;;;5098154;28;20433;-45
2022/06/05 12:00:16;;;;;;;5.17;3.10;;;25.30;92.30;;;;;;5096948;28;20416;-48
2022/06/05 12:02:51;;;;;;;3.70;2.90;;;24.80;92.50;;;;;;5097720;28;20463;-42
2022/06/05 12:05:59;;;;;;;7.77;3.90;;;24.50;92.80;;;;;;5098965;28;20837;-43
2022/06/05 12:08:38;;;;;;;5.33;3.27;;;24.00;93.40;;;;;;5081233;28;20444;-45
2022/06/05 12:11:09;;;;;;;5.43;3.70;;;23.60;94.50;;;;;;5096146;28;20494;-43
2022/06/05 12:13:40;;;;;;;3.90;3.50;;;23.30;94.80;;;;;;5096411;28;20406;-43
2022/06/05 12:16:31;;;;;;;5.73;3.70;;;23.10;95.70;;;;;;5096943;28;21038;-46
2022/06/05 12:19:01;;;;;;;3.77;3.03;;;22.90;95.40;;;;;;5096547;28;20984;-46
2022/06/05 12:21:29;;;;;;;3.80;3.50;;;22.90;96.30;;;;;;5095108;28;20437;-45
2022/06/05 12:24:05;;;;;;;4.77;3.27;;;22.90;96.80;;;;;;5095850;28;20885;-43
2022/06/05 12:26:50;;;;;;;3.40;3.10;;;22.80;96.70;;;;;;5096592;28;20419;-43
2022/06/05 12:29:27;;;;;;;4.57;3.20;;;22.80;97.00;;;;;;5096856;28;20429;-46
2022/06/05 12:31:54;;;;;;;4.30;3.40;;;23.20;96.90;;;;;;5097511;28;20414;-45
2022/06/05 12:34:29;;;;;;;3.63;3.10;;;23.80;96.30;;;;;;5096852;28;20422;-45
2022/06/05 12:37:02;;;;;;;4.43;3.30;;;24.30;94.70;;;;;;5096765;28;20417;-44
2022/06/05 12:39:33;;;;;;;5.27;2.63;;;24.60;93.30;;;;;;5096030;28;20429;-43
2022/06/05 12:42:05;;;;;;;5.80;3.43;;;24.80;93.60;;;;;;5096027;28;20457;-50
2022/06/05 12:44:34;;;;;;;3.53;3.20;;;25.40;92.90;;;;;;5094876;28;20449;-44
2022/06/05 12:47:25;;;;;;;5.20;3.70;;;25.50;92.10;;;;;;5080420;28;20437;-46
2022/06/05 12:49:56;;;;;;;3.30;3.00;;;25.10;91.90;;;;;;5056040;28;20416;-44
2022/06/05 12:52:37;;;;;;;5.90;3.67;;;24.70;92.40;;;;;;5096852;28;20437;-45
2022/06/05 12:55:21;;;;;;;6.03;3.60;;;24.40;92.80;;;;;;5094805;28;20422;-44
2022/06/05 12:57:52;;;;;;;5.97;3.30;;;24.40;92.70;;;;;;5094574;28;20475;-42
2022/06/05 13:00:49;;;;;;;3.50;3.20;;;24.40;93.30;;;;;;5094849;28;20417;-46
2022/06/05 13:03:22;;;;;;;5.30;4.20;;;24.60;93.00;;;;;;5078938;28;20793;-45
2022/06/05 13:06:18;;;;;;;5.00;3.37;;;24.70;92.40;;;;;;5094737;28;20430;-42
2022/06/05 13:08:52;;;;;;;4.43;2.70;;;24.50;92.60;;;;;;5060257;28;20430;-48
2022/06/05 13:11:42;;;;;;;6.53;3.47;;;24.60;92.90;;;;;;5096468;28;20453;-44
2022/06/05 13:14:25;;;;;;;5.40;3.83;;;25.00;92.50;;;;;;5097853;28;20416;-48
2022/06/05 13:16:59;;;;;;;3.87;3.43;;;25.20;91.90;;;;;;5097001;28;20428;-46
2022/06/05 13:19:44;;;;;;;4.33;3.27;;;25.40;91.80;;;;;;5095974;28;20420;-48
2022/06/05 13:22:32;;;;;;;3.93;3.40;;;25.20;91.90;;;;;;5096640;28;20861;-50
2022/06/05 13:25:25;;;;;;;4.23;3.70;;;24.90;92.70;;;;;;5096629;28;20450;-47
2022/06/05 13:28:42;;;;;;;5.50;3.70;;;24.80;92.60;;;;;;5095043;28;20477;-49